createdAt,value
2022-10-27T00:01:03.785Z,60.28
2022-10-27T00:03:37.272Z,60.40
2022-10-27T00:06:07.985Z,60.17
2022-10-27T00:08:37.394Z,60.44
2022-10-27T00:11:07.166Z,60.25
2022-10-27T00:13:36.680Z,60.42
2022-10-27T00:16:10.120Z,60.82
2022-10-27T00:18:38.586Z,60.37
2022-10-27T00:21:20.479Z,60.57
2022-10-27T00:23:50.885Z,60.85
2022-10-27T00:26:21.811Z,60.65
2022-10-27T00:28:49.659Z,60.58
2022-10-27T00:31:22.880Z,61.09
2022-10-27T00:33:51.704Z,61.55
2022-10-27T00:36:23.018Z,61.75
2022-10-27T00:38:59.554Z,61.70
2022-10-27T00:41:41.821Z,61.91
2022-10-27T00:44:31.665Z,61.69
2022-10-27T00:47:25.282Z,61.80
2022-10-27T00:50:08.069Z,61.43
2022-10-27T00:52:50.713Z,62.21
2022-10-27T00:55:36.465Z,61.37
2022-10-27T00:58:10.033Z,60.66
2022-10-27T01:00:40.857Z,60.74
2022-10-27T01:03:13.342Z,60.42
2022-10-27T01:05:43.404Z,60.31
2022-10-27T01:08:12.974Z,59.94
2022-10-27T01:10:40.799Z,59.70
2022-10-27T01:13:08.716Z,57.97
2022-10-27T01:16:10.264Z,58.13
2022-10-27T01:19:22.146Z,58.98
2022-10-27T01:25:03.903Z,64.76
2022-10-27T01:28:08.995Z,63.89
2022-10-27T01:31:01.263Z,62.49
2022-10-27T01:33:49.425Z,62.15
2022-10-27T01:36:31.566Z,62.61
2022-10-27T01:39:27.497Z,62.27
2022-10-27T01:42:06.079Z,61.49
2022-10-27T01:44:41.600Z,60.92
2022-10-27T01:47:12.044Z,60.19
2022-10-27T01:49:43.068Z,60.66
2022-10-27T01:52:49.214Z,60.65
2022-10-27T01:55:56.494Z,60.50
2022-10-27T01:58:46.615Z,57.56
2022-10-27T02:01:37.887Z,58.19
2022-10-27T02:04:52.555Z,62.18
2022-10-27T02:07:46.066Z,63.24
2022-10-27T02:10:23.456Z,63.11
2022-10-27T02:12:52.777Z,63.45
2022-10-27T02:15:37.131Z,63.41
2022-10-27T02:18:34.078Z,63.39
2022-10-27T02:21:07.828Z,64.08
2022-10-27T02:23:36.574Z,63.53
2022-10-27T02:26:19.573Z,62.68
2022-10-27T02:29:01.728Z,62.42
2022-10-27T02:31:44.409Z,61.97
2022-10-27T02:34:13.280Z,61.95
2022-10-27T02:36:41.119Z,62.30
2022-10-27T02:39:08.825Z,62.23
2022-10-27T02:41:36.551Z,61.98
2022-10-27T02:44:04.508Z,61.89
2022-10-27T02:46:32.222Z,61.74
2022-10-27T02:49:00.037Z,61.60
2022-10-27T02:51:27.771Z,61.06
2022-10-27T02:53:55.751Z,59.81
2022-10-27T02:56:23.435Z,58.15
2022-10-27T02:58:51.196Z,57.58
2022-10-27T03:01:18.934Z,58.16
2022-10-27T03:03:46.853Z,59.61
2022-10-27T03:06:14.661Z,63.69
2022-10-27T03:08:42.368Z,66.05
2022-10-27T03:11:10.142Z,65.11
2022-10-27T03:13:37.987Z,63.97
2022-10-27T03:16:06.108Z,63.02
2022-10-27T03:18:33.896Z,62.73
2022-10-27T03:21:01.613Z,62.41
2022-10-27T03:23:30.165Z,61.95
2022-10-27T03:26:00.151Z,61.89
2022-10-27T03:28:30.435Z,61.75
2022-10-27T03:30:58.149Z,62.04
2022-10-27T03:33:25.831Z,61.59
2022-10-27T03:35:53.805Z,60.86
2022-10-27T03:38:21.704Z,60.33
2022-10-27T03:40:49.548Z,59.95
2022-10-27T03:43:17.330Z,58.15
2022-10-27T03:45:51.591Z,57.96
2022-10-27T03:48:19.306Z,59.39
2022-10-27T03:50:50.158Z,62.84
2022-10-27T03:53:18.939Z,64.80
2022-10-27T03:55:48.804Z,63.59
2022-10-27T03:58:18.577Z,62.46
2022-10-27T04:00:47.075Z,61.97
2022-10-27T04:03:14.845Z,61.40
2022-10-27T04:05:42.637Z,61.50
2022-10-27T04:08:10.406Z,61.14
2022-10-27T04:10:38.139Z,58.48
2022-10-27T04:13:05.999Z,57.84
2022-10-27T04:15:33.763Z,58.98
2022-10-27T04:18:01.454Z,62.51
2022-10-27T04:20:30.186Z,64.60
2022-10-27T04:22:59.833Z,64.07
2022-10-27T04:25:27.853Z,63.12
2022-10-27T04:28:02.730Z,62.77
2022-10-27T04:30:30.567Z,62.85
2022-10-27T04:32:58.419Z,62.85
2022-10-27T04:35:26.621Z,62.82
2022-10-27T04:37:58.275Z,62.70
2022-10-27T04:40:26.338Z,61.97
2022-10-27T04:42:54.126Z,61.22
2022-10-27T04:45:22.835Z,60.34
2022-10-27T04:47:50.795Z,58.27
2022-10-27T04:50:19.355Z,57.55
2022-10-27T04:53:02.281Z,58.93
2022-10-27T04:55:33.567Z,62.42
2022-10-27T04:58:05.553Z,64.76
2022-10-27T05:00:36.701Z,65.62
2022-10-27T05:03:04.570Z,62.13
2022-10-27T05:05:32.607Z,61.65
2022-10-27T05:08:03.386Z,60.95
2022-10-27T05:10:34.313Z,60.76
2022-10-27T05:13:02.452Z,58.52
2022-10-27T05:15:30.594Z,57.65
2022-10-27T05:17:59.029Z,59.07
2022-10-27T05:20:26.787Z,63.05
2022-10-27T05:22:54.611Z,65.27
2022-10-27T05:25:22.343Z,64.48
2022-10-27T05:27:50.396Z,63.86
2022-10-27T05:30:18.775Z,63.86
2022-10-27T05:32:47.628Z,63.69
2022-10-27T05:35:15.694Z,62.87
2022-10-27T05:37:45.546Z,61.96
2022-10-27T05:40:14.687Z,61.05
2022-10-27T05:42:56.787Z,60.24
2022-10-27T05:45:25.213Z,58.27
2022-10-27T05:48:02.171Z,57.60
2022-10-27T05:50:30.466Z,59.13
2022-10-27T05:52:58.666Z,63.48
2022-10-27T05:55:27.499Z,65.36
2022-10-27T05:58:05.006Z,64.52
2022-10-27T06:00:37.032Z,63.91
2022-10-27T06:03:08.142Z,62.50
2022-10-27T06:05:37.479Z,61.48
2022-10-27T06:08:05.611Z,61.00
2022-10-27T06:10:33.401Z,60.83
2022-10-27T06:13:06.736Z,60.17
2022-10-27T06:15:35.318Z,58.42
2022-10-27T06:18:03.734Z,57.79
2022-10-27T06:20:31.523Z,59.81
2022-10-27T06:22:59.744Z,63.66
2022-10-27T06:25:27.450Z,65.00
2022-10-27T06:27:56.247Z,64.20
2022-10-27T06:30:24.231Z,62.56
2022-10-27T06:32:52.402Z,61.30
2022-10-27T06:35:20.976Z,61.07
2022-10-27T06:37:48.894Z,60.67
2022-10-27T06:40:20.283Z,58.33
2022-10-27T06:43:07.715Z,57.46
2022-10-27T06:45:37.407Z,57.84
2022-10-27T06:48:08.740Z,60.11
2022-10-27T06:50:37.012Z,63.75
2022-10-27T06:53:05.400Z,65.89
2022-10-27T06:55:33.872Z,65.24
2022-10-27T06:58:01.682Z,64.57
2022-10-27T07:00:30.460Z,64.15
2022-10-27T07:02:58.450Z,63.52
2022-10-27T07:05:26.608Z,62.50
2022-10-27T07:07:54.929Z,62.38
2022-10-27T07:10:23.358Z,62.80
2022-10-27T07:12:56.546Z,62.87
2022-10-27T07:15:27.971Z,62.27
2022-10-27T07:18:02.662Z,61.42
2022-10-27T07:20:33.606Z,61.10
2022-10-27T07:23:03.212Z,60.64
2022-10-27T07:25:33.727Z,60.63
2022-10-27T07:28:04.985Z,61.04
2022-10-27T07:30:38.630Z,60.49
2022-10-27T07:33:06.986Z,59.96
2022-10-27T07:35:35.311Z,59.95
2022-10-27T07:38:03.053Z,59.94
2022-10-27T07:40:33.200Z,58.50
2022-10-27T07:43:05.302Z,57.68
2022-10-27T07:45:40.879Z,58.51
2022-10-27T07:48:14.740Z,60.54
2022-10-27T07:50:45.086Z,64.48
2022-10-27T07:53:15.727Z,65.08
2022-10-27T07:55:43.849Z,62.64
2022-10-27T07:58:15.798Z,61.23
2022-10-27T08:00:46.805Z,58.99
2022-10-27T08:03:21.938Z,57.71
2022-10-27T08:05:50.122Z,58.98
2022-10-27T08:08:18.938Z,62.18
2022-10-27T08:10:49.906Z,63.51
2022-10-27T08:13:17.781Z,61.75
2022-10-27T08:15:45.777Z,58.32
2022-10-27T08:18:14.564Z,57.10
2022-10-27T08:20:46.092Z,57.82
2022-10-27T08:23:17.232Z,58.95
2022-10-27T08:25:45.450Z,60.79
2022-10-27T08:28:15.233Z,63.60
2022-10-27T08:30:51.984Z,63.95
2022-10-27T08:33:22.819Z,62.40
2022-10-27T08:35:51.691Z,58.88
2022-10-27T08:38:20.523Z,57.14
2022-10-27T08:41:08.553Z,57.98
2022-10-27T08:44:03.958Z,59.58
2022-10-27T08:46:44.792Z,63.87
2022-10-27T08:49:35.550Z,64.78
2022-10-27T08:52:15.285Z,62.54
2022-10-27T08:54:51.540Z,61.23
2022-10-27T08:57:28.380Z,59.64
2022-10-27T08:59:58.444Z,59.52
2022-10-27T09:03:23.611Z,61.73
2022-10-27T09:06:11.532Z,65.23
2022-10-27T09:09:10.037Z,64.20
2022-10-27T09:11:49.821Z,62.85
2022-10-27T09:15:07.190Z,61.48
2022-10-27T09:17:43.078Z,58.69
2022-10-27T09:20:36.410Z,58.95
2022-10-27T09:23:12.929Z,60.30
2022-10-27T09:25:42.808Z,61.52
2022-10-27T09:28:22.820Z,62.22
2022-10-27T09:30:53.283Z,64.71
2022-10-27T09:33:28.913Z,63.33
2022-10-27T09:35:57.906Z,61.60
2022-10-27T09:38:27.825Z,58.93
2022-10-27T09:40:55.997Z,58.79
2022-10-27T09:43:24.355Z,60.10
2022-10-27T09:46:06.531Z,60.62
2022-10-27T09:48:35.163Z,60.86
2022-10-27T09:51:14.564Z,64.05
2022-10-27T09:53:48.989Z,64.84
2022-10-27T09:56:33.149Z,63.28
2022-10-27T09:59:04.590Z,62.11
2022-10-27T10:01:57.430Z,59.26
2022-10-27T10:04:31.773Z,59.05
2022-10-27T10:07:05.020Z,60.54
2022-10-27T10:09:35.596Z,61.40
2022-10-27T10:12:23.366Z,63.99
2022-10-27T10:15:12.826Z,64.41
2022-10-27T10:17:44.176Z,62.76
2022-10-27T10:23:35.440Z,61.27
2022-10-27T10:26:19.577Z,58.70
2022-10-27T10:28:54.972Z,57.60
2022-10-27T10:31:29.328Z,59.47
2022-10-27T10:34:23.785Z,59.78
2022-10-27T10:36:51.679Z,61.13
2022-10-27T10:39:27.529Z,63.85
2022-10-27T10:42:10.992Z,63.80
2022-10-27T10:44:39.040Z,61.79
2022-10-27T10:47:22.554Z,58.78
2022-10-27T10:49:57.077Z,58.58
2022-10-27T10:52:39.490Z,59.00
2022-10-27T10:55:20.151Z,58.68
2022-10-27T10:57:55.126Z,59.50
2022-10-27T11:00:23.829Z,59.29
2022-10-27T11:03:01.675Z,60.39
2022-10-27T11:05:34.250Z,61.76
2022-10-27T11:08:05.603Z,63.82
2022-10-27T11:10:43.196Z,62.46
2022-10-27T11:13:23.932Z,61.66
2022-10-27T11:16:01.790Z,59.62
2022-10-27T11:18:51.470Z,59.06
2022-10-27T11:21:35.866Z,59.81
2022-10-27T11:24:22.743Z,61.68
2022-10-27T11:27:08.084Z,62.40
2022-10-27T11:30:10.536Z,64.37
2022-10-27T11:32:53.873Z,63.17
2022-10-27T11:36:04.238Z,61.29
2022-10-27T11:38:51.950Z,58.74
2022-10-27T11:41:52.098Z,59.12
2022-10-27T11:44:35.263Z,60.17
2022-10-27T11:47:39.479Z,61.12
2022-10-27T11:50:15.856Z,62.05
2022-10-27T11:52:51.457Z,62.32
2022-10-27T11:55:34.717Z,63.15
2022-10-27T11:58:26.189Z,61.70
2022-10-27T12:01:08.537Z,59.33
2022-10-27T12:04:07.758Z,58.02
2022-10-27T12:07:08.247Z,59.48
2022-10-27T12:09:45.112Z,60.91
2022-10-27T12:12:39.801Z,62.01
2022-10-27T12:15:39.874Z,63.37
2022-10-27T12:18:25.298Z,62.31
2022-10-27T12:21:02.698Z,59.94
2022-10-27T12:23:45.018Z,58.21
2022-10-27T12:26:42.465Z,58.73
2022-10-27T12:29:13.694Z,60.35
2022-10-27T12:32:25.148Z,61.56
2022-10-27T12:35:05.314Z,62.83
2022-10-27T12:38:19.971Z,63.50
2022-10-27T12:41:08.242Z,61.53
2022-10-27T12:43:55.906Z,60.39
2022-10-27T12:46:43.482Z,58.23
2022-10-27T12:49:23.756Z,58.60
2022-10-27T12:52:23.348Z,59.84
2022-10-27T12:55:15.524Z,61.40
2022-10-27T12:58:01.648Z,62.74
2022-10-27T13:00:44.611Z,63.40
2022-10-27T13:03:23.852Z,61.77
2022-10-27T13:06:33.141Z,60.34
2022-10-27T13:09:28.945Z,58.44
2022-10-27T13:12:27.992Z,59.01
2022-10-27T13:15:31.023Z,60.88
2022-10-27T13:18:01.830Z,62.45
2022-10-27T13:20:56.554Z,64.06
2022-10-27T13:24:09.854Z,63.07
2022-10-27T13:26:54.301Z,61.61
2022-10-27T13:29:36.829Z,60.21
2022-10-27T13:32:20.043Z,59.20
2022-10-27T13:34:59.990Z,59.37
2022-10-27T13:37:41.013Z,60.98
2022-10-27T13:40:41.504Z,63.73
2022-10-27T13:43:21.915Z,63.62
2022-10-27T13:45:56.184Z,61.61
2022-10-27T13:48:23.994Z,60.71
2022-10-27T13:50:56.003Z,59.10
2022-10-27T13:53:26.446Z,59.10
2022-10-27T13:56:37.427Z,60.49
2022-10-27T13:59:20.020Z,63.61
2022-10-27T14:01:58.815Z,63.24
2022-10-27T14:04:51.235Z,61.75
2022-10-27T14:07:19.288Z,61.00
2022-10-27T14:09:51.082Z,60.85
2022-10-27T14:12:36.509Z,60.77
2022-10-27T14:15:20.502Z,60.28
2022-10-27T14:17:49.571Z,60.33
2022-10-27T14:20:30.099Z,60.67
2022-10-27T14:23:11.077Z,60.45
2022-10-27T14:25:39.138Z,60.28
2022-10-27T14:28:12.925Z,60.27
2022-10-27T14:30:46.126Z,60.02
2022-10-27T14:33:23.769Z,60.01
2022-10-27T14:36:30.655Z,58.61
2022-10-27T14:39:25.219Z,58.73
2022-10-27T14:42:02.996Z,61.83
2022-10-27T14:44:36.013Z,63.15
2022-10-27T14:47:11.658Z,63.03
2022-10-27T14:49:50.990Z,62.22
2022-10-27T14:52:34.511Z,61.45
2022-10-27T14:55:02.497Z,61.31
2022-10-27T14:57:37.274Z,62.03
2022-10-27T15:00:30.928Z,61.23
2022-10-27T15:03:04.025Z,60.42
2022-10-27T15:05:46.487Z,58.08
2022-10-27T15:08:21.705Z,56.49
2022-10-27T15:10:53.506Z,56.84
2022-10-27T15:13:25.084Z,57.95
2022-10-27T15:15:59.374Z,59.54
2022-10-27T15:18:36.504Z,62.89
2022-10-27T15:21:27.165Z,64.33
2022-10-27T15:24:07.329Z,63.33
2022-10-27T15:26:35.352Z,62.11
2022-10-27T15:31:42.853Z,60.20
2022-10-27T15:34:33.569Z,59.99
2022-10-27T15:37:30.896Z,58.50
2022-10-27T15:40:31.953Z,58.35
2022-10-27T15:43:02.495Z,59.70
2022-10-27T15:45:51.015Z,64.32
2022-10-27T15:48:33.926Z,65.71
2022-10-27T15:51:14.515Z,64.12
2022-10-27T15:53:57.714Z,62.81
2022-10-27T15:56:39.604Z,61.96
2022-10-27T15:59:20.513Z,61.51
2022-10-27T16:01:51.811Z,61.17
2022-10-27T16:04:35.210Z,60.83
2022-10-27T16:07:11.981Z,60.46
2022-10-27T16:09:45.809Z,58.64
2022-10-27T16:12:17.233Z,58.33
2022-10-27T16:14:54.064Z,59.39
2022-10-27T16:17:26.315Z,62.91
2022-10-27T16:20:04.336Z,64.41
2022-10-27T16:22:32.277Z,63.52
2022-10-27T16:25:00.329Z,62.36
2022-10-27T16:27:30.628Z,61.69
2022-10-27T16:30:02.485Z,60.76
2022-10-27T16:32:33.849Z,58.52
2022-10-27T16:35:05.556Z,57.70
2022-10-27T16:37:34.015Z,59.21
2022-10-27T16:40:01.712Z,62.68
2022-10-27T16:42:31.436Z,64.94
2022-10-27T16:44:59.177Z,64.32
2022-10-27T16:47:27.035Z,63.01
2022-10-27T16:49:56.532Z,62.51
2022-10-27T16:52:25.884Z,61.99
2022-10-27T16:54:53.636Z,61.99
2022-10-27T16:59:50.184Z,60.96
2022-10-27T17:02:17.996Z,58.81
2022-10-27T17:04:45.798Z,58.62
2022-10-27T17:07:13.764Z,59.84
2022-10-27T17:09:41.664Z,63.74
2022-10-27T17:12:10.385Z,65.96
2022-10-27T17:14:38.219Z,64.76
2022-10-27T17:17:06.082Z,64.06
2022-10-27T17:19:33.782Z,63.15
2022-10-27T17:22:01.846Z,63.08
2022-10-27T17:24:30.507Z,63.13
2022-10-27T17:26:58.284Z,62.82
2022-10-27T17:29:26.839Z,61.69
2022-10-27T17:31:54.605Z,61.70
2022-10-27T17:34:22.473Z,61.62
2022-10-27T17:36:50.557Z,61.46
2022-10-27T17:39:18.573Z,61.45
2022-10-27T17:41:46.800Z,60.78
2022-10-27T17:44:14.637Z,60.88
2022-10-27T17:46:42.297Z,61.00
2022-10-27T17:49:10.062Z,60.85
2022-10-27T17:51:37.848Z,60.81
2022-10-27T17:54:05.675Z,60.64
2022-10-27T17:56:36.900Z,60.98
2022-10-27T17:59:14.151Z,60.05
2022-10-27T18:01:43.223Z,60.47
2022-10-27T18:04:12.362Z,60.67
2022-10-27T18:06:42.377Z,61.03
2022-10-27T18:09:11.438Z,61.17
2022-10-27T18:11:39.269Z,60.49
2022-10-27T18:14:14.468Z,60.69
2022-10-27T18:16:44.387Z,60.82
2022-10-27T18:19:14.836Z,60.53
2022-10-27T18:21:46.217Z,58.42
2022-10-27T18:24:16.834Z,59.43
2022-10-27T18:26:48.411Z,62.73
2022-10-27T18:29:18.646Z,63.52
2022-10-27T18:31:48.791Z,64.21
2022-10-27T18:34:17.177Z,63.76
2022-10-27T18:36:45.866Z,62.44
2022-10-27T18:39:18.847Z,62.19
2022-10-27T18:41:49.238Z,61.91
2022-10-27T18:44:17.629Z,61.89
2022-10-27T18:46:45.465Z,61.79
2022-10-27T18:49:16.044Z,61.68
2022-10-27T18:51:48.290Z,61.68
2022-10-27T18:54:16.334Z,61.93
2022-10-27T18:56:44.445Z,62.03
2022-10-27T18:59:13.441Z,62.02
2022-10-27T19:01:43.540Z,62.02
2022-10-27T19:04:11.437Z,60.75
2022-10-27T19:06:39.216Z,61.21
2022-10-27T19:09:07.174Z,61.38
2022-10-27T19:11:36.735Z,61.37
2022-10-27T19:14:05.052Z,60.34
2022-10-27T19:16:33.058Z,60.09
2022-10-27T19:19:01.363Z,60.01
2022-10-27T19:21:30.502Z,60.08
2022-10-27T19:24:02.508Z,60.18
2022-10-27T19:26:34.833Z,58.37
2022-10-27T19:29:03.016Z,58.10
2022-10-27T19:31:38.653Z,59.30
2022-10-27T19:34:10.094Z,64.29
2022-10-27T19:36:40.559Z,65.92
2022-10-27T19:39:11.438Z,65.19
2022-10-27T19:41:40.268Z,63.83
2022-10-27T19:44:08.150Z,63.39
2022-10-27T19:46:36.009Z,63.02
2022-10-27T19:49:12.972Z,64.07
2022-10-27T19:51:40.871Z,64.03
2022-10-27T19:54:19.149Z,63.60
2022-10-27T19:56:48.659Z,63.30
2022-10-27T19:59:19.838Z,63.25
2022-10-27T20:01:51.774Z,63.64
2022-10-27T20:04:22.934Z,63.65
2022-10-27T20:06:50.794Z,63.78
2022-10-27T20:09:21.449Z,63.91
2022-10-27T20:11:50.199Z,64.18
2022-10-27T20:14:18.183Z,63.72
2022-10-27T20:16:47.235Z,64.25
2022-10-27T20:19:22.022Z,64.29
2022-10-27T20:21:50.998Z,63.95
2022-10-27T20:24:20.634Z,63.80
2022-10-27T20:29:25.746Z,62.78
2022-10-27T20:31:55.271Z,63.10
2022-10-27T20:34:23.103Z,63.02
2022-10-27T20:36:50.810Z,62.99
2022-10-27T20:39:22.358Z,63.56
2022-10-27T20:41:50.178Z,63.07
2022-10-27T20:44:17.887Z,63.13
2022-10-27T20:46:45.638Z,62.41
2022-10-27T20:49:13.343Z,63.43
2022-10-27T20:51:41.113Z,63.35
2022-10-27T20:54:13.957Z,63.22
2022-10-27T20:56:41.704Z,62.48
2022-10-27T20:59:09.586Z,62.87
2022-10-27T21:01:40.959Z,63.04
2022-10-27T21:04:10.952Z,62.85
2022-10-27T21:06:44.010Z,63.33
2022-10-27T21:09:15.463Z,63.62
2022-10-27T21:11:44.859Z,63.63
2022-10-27T21:14:13.394Z,63.18
2022-10-27T21:16:41.193Z,63.55
2022-10-27T21:19:10.480Z,63.40
2022-10-27T21:21:39.145Z,63.21
2022-10-27T21:24:08.089Z,62.89
2022-10-27T21:26:36.937Z,62.58
2022-10-27T21:29:04.615Z,62.19
2022-10-27T21:31:33.036Z,61.74
2022-10-27T21:34:03.664Z,61.37
2022-10-27T21:36:31.901Z,61.65
2022-10-27T21:39:00.566Z,61.32
2022-10-27T21:41:28.557Z,61.31
2022-10-27T21:43:56.853Z,60.75
2022-10-27T21:46:28.980Z,59.95
2022-10-27T21:48:59.872Z,59.89
2022-10-27T21:51:29.713Z,58.54
2022-10-27T21:54:03.818Z,58.76
2022-10-27T21:56:35.185Z,63.22
2022-10-27T21:59:04.376Z,66.01
2022-10-27T22:01:32.339Z,65.58
2022-10-27T22:04:00.456Z,64.89
2022-10-27T22:06:45.679Z,64.27
2022-10-27T22:09:13.459Z,63.68
2022-10-27T22:11:41.214Z,63.42
2022-10-27T22:14:12.350Z,63.08
2022-10-27T22:16:40.029Z,62.83
2022-10-27T22:19:08.834Z,62.93
2022-10-27T22:21:39.460Z,62.92
2022-10-27T22:24:08.099Z,63.00
2022-10-27T22:26:41.031Z,63.29
2022-10-27T22:29:10.432Z,62.53
2022-10-27T22:31:38.173Z,61.67
2022-10-27T22:34:05.999Z,62.55
2022-10-27T22:36:34.655Z,63.03
2022-10-27T22:39:04.294Z,63.36
2022-10-27T22:41:35.542Z,63.28
2022-10-27T22:44:04.349Z,63.38
2022-10-27T22:46:34.017Z,63.09
2022-10-27T22:49:02.378Z,63.21
2022-10-27T22:51:30.286Z,63.47
2022-10-27T22:53:59.335Z,63.19
2022-10-27T22:56:33.439Z,62.88
2022-10-27T22:59:04.296Z,62.56
2022-10-27T23:01:36.021Z,62.87
2022-10-27T23:04:07.496Z,63.32
2022-10-27T23:06:38.006Z,64.28
2022-10-27T23:09:14.573Z,64.77
2022-10-27T23:11:43.635Z,65.21
2022-10-27T23:14:14.239Z,64.36
2022-10-27T23:16:43.166Z,64.92
2022-10-27T23:19:13.358Z,64.31
2022-10-27T23:21:41.248Z,64.35
2022-10-27T23:24:09.221Z,64.27
2022-10-27T23:26:39.404Z,64.87
2022-10-27T23:29:12.701Z,65.26
2022-10-27T23:31:40.767Z,65.21
2022-10-27T23:34:11.042Z,66.01
2022-10-27T23:36:39.498Z,65.88
2022-10-27T23:39:07.265Z,65.86
2022-10-27T23:41:35.122Z,65.22
2022-10-27T23:44:03.017Z,63.40
2022-10-27T23:46:30.947Z,63.61
2022-10-27T23:48:59.234Z,63.26
2022-10-27T23:51:27.975Z,63.13
2022-10-27T23:53:56.055Z,63.16
2022-10-27T23:56:25.324Z,63.52
2022-10-27T23:58:53.250Z,63.65
